sensor_id;sensor_type;location;lat;lon;timestamp;temperature;humidity
3866;DHT22;1948;53.250;10.412;2023-08-01T00:00:03;17.90;99.90
3866;DHT22;1948;53.250;10.412;2023-08-01T00:02:32;18.00;99.90
3866;DHT22;1948;53.250;10.412;2023-08-01T00:04:59;18.10;99.90
3866;DHT22;1948;53.250;10.412;2023-08-01T00:07:29;18.20;99.90
3866;DHT22;1948;53.250;10.412;2023-08-01T00:09:56;18.20;99.90
3866;DHT22;1948;53.250;10.412;2023-08-01T00:12:24;18.20;99.90
3866;DHT22;1948;53.250;10.412;2023-08-01T00:14:54;18.20;99.90
3866;DHT22;1948;53.250;10.412;2023-08-01T00:17:20;18.20;99.90
3866;DHT22;1948;53.250;10.412;2023-08-01T00:19:47;18.10;99.90
3866;DHT22;1948;53.250;10.412;2023-08-01T00:22:14;18.10;99.90
3866;DHT22;1948;53.250;10.412;2023-08-01T00:24:42;18.10;99.90
3866;DHT22;1948;53.250;10.412;2023-08-01T00:27:09;18.10;99.90
3866;DHT22;1948;53.250;10.412;2023-08-01T00:29:37;18.10;99.90
3866;DHT22;1948;53.250;10.412;2023-08-01T00:32:04;18.10;99.90
3866;DHT22;1948;53.250;10.412;2023-08-01T00:34:31;18.10;99.90
3866;DHT22;1948;53.250;10.412;2023-08-01T00:36:58;18.10;99.90
3866;DHT22;1948;53.250;10.412;2023-08-01T00:39:25;18.00;99.90
3866;DHT22;1948;53.250;10.412;2023-08-01T00:41:57;17.90;99.90
3866;DHT22;1948;53.250;10.412;2023-08-01T00:44:24;17.90;99.90
3866;DHT22;1948;53.250;10.412;2023-08-01T00:46:51;17.90;99.90
3866;DHT22;1948;53.250;10.412;2023-08-01T00:49:18;17.80;99.90
3866;DHT22;1948;53.250;10.412;2023-08-01T00:51:45;17.90;99.90
3866;DHT22;1948;53.250;10.412;2023-08-01T00:54:12;17.80;99.90
3866;DHT22;1948;53.250;10.412;2023-08-01T00:56:40;17.90;99.90
3866;DHT22;1948;53.250;10.412;2023-08-01T00:59:13;17.80;99.90
3866;DHT22;1948;53.250;10.412;2023-08-01T01:01:40;17.80;99.90
3866;DHT22;1948;53.250;10.412;2023-08-01T01:04:08;17.80;99.90
3866;DHT22;1948;53.250;10.412;2023-08-01T01:06:46;17.80;99.90
3866;DHT22;1948;53.250;10.412;2023-08-01T01:09:22;17.80;99.90
3866;DHT22;1948;53.250;10.412;2023-08-01T01:11:48;17.70;99.90
3866;DHT22;1948;53.250;10.412;2023-08-01T01:14:15;17.70;99.90
3866;DHT22;1948;53.250;10.412;2023-08-01T01:16:45;17.70;99.90
3866;DHT22;1948;53.250;10.412;2023-08-01T01:19:12;17.60;99.90
3866;DHT22;1948;53.250;10.412;2023-08-01T01:21:43;17.60;99.90
3866;DHT22;1948;53.250;10.412;2023-08-01T01:24:11;17.60;99.90
3866;DHT22;1948;53.250;10.412;2023-08-01T01:26:40;17.60;99.90
3866;DHT22;1948;53.250;10.412;2023-08-01T01:29:09;17.50;99.90
3866;DHT22;1948;53.250;10.412;2023-08-01T01:31:37;17.50;99.90
3866;DHT22;1948;53.250;10.412;2023-08-01T01:34:04;17.50;99.90
3866;DHT22;1948;53.250;10.412;2023-08-01T01:36:35;17.50;99.90
3866;DHT22;1948;53.250;10.412;2023-08-01T01:39:03;17.50;99.90
3866;DHT22;1948;53.250;10.412;2023-08-01T01:41:30;17.50;99.90
3866;DHT22;1948;53.250;10.412;2023-08-01T01:43:57;17.50;99.90
3866;DHT22;1948;53.250;10.412;2023-08-01T01:46:24;17.40;99.90
3866;DHT22;1948;53.250;10.412;2023-08-01T01:48:53;17.40;99.90
3866;DHT22;1948;53.250;10.412;2023-08-01T01:51:27;17.50;99.90
3866;DHT22;1948;53.250;10.412;2023-08-01T01:53:59;17.50;99.90
3866;DHT22;1948;53.250;10.412;2023-08-01T01:56:26;17.50;99.90
3866;DHT22;1948;53.250;10.412;2023-08-01T01:58:53;17.50;99.90
3866;DHT22;1948;53.250;10.412;2023-08-01T02:01:20;17.50;99.90
3866;DHT22;1948;53.250;10.412;2023-08-01T02:03:47;17.40;99.90
3866;DHT22;1948;53.250;10.412;2023-08-01T02:06:14;17.40;99.90
3866;DHT22;1948;53.250;10.412;2023-08-01T02:08:41;17.40;99.90
3866;DHT22;1948;53.250;10.412;2023-08-01T02:11:08;17.50;99.90
3866;DHT22;1948;53.250;10.412;2023-08-01T02:13:35;17.40;99.90
3866;DHT22;1948;53.250;10.412;2023-08-01T02:16:02;17.40;99.90
3866;DHT22;1948;53.250;10.412;2023-08-01T02:18:32;17.40;99.90
3866;DHT22;1948;53.250;10.412;2023-08-01T02:21:02;17.40;99.90
3866;DHT22;1948;53.250;10.412;2023-08-01T02:23:29;17.40;99.90
3866;DHT22;1948;53.250;10.412;2023-08-01T02:26:03;17.40;99.90
3866;DHT22;1948;53.250;10.412;2023-08-01T02:28:34;17.40;99.90
3866;DHT22;1948;53.250;10.412;2023-08-01T02:31:02;17.40;99.90
3866;DHT22;1948;53.250;10.412;2023-08-01T02:33:29;17.40;99.90
3866;DHT22;1948;53.250;10.412;2023-08-01T02:35:58;17.40;99.90
3866;DHT22;1948;53.250;10.412;2023-08-01T02:38:25;17.40;99.90
3866;DHT22;1948;53.250;10.412;2023-08-01T02:40:52;17.40;99.90
3866;DHT22;1948;53.250;10.412;2023-08-01T02:43:19;17.40;99.90
3866;DHT22;1948;53.250;10.412;2023-08-01T02:45:46;17.30;99.90
3866;DHT22;1948;53.250;10.412;2023-08-01T02:48:13;17.30;99.90
3866;DHT22;1948;53.250;10.412;2023-08-01T02:50:40;17.40;99.90
3866;DHT22;1948;53.250;10.412;2023-08-01T02:53:08;17.30;99.90
3866;DHT22;1948;53.250;10.412;2023-08-01T02:55:35;17.30;99.90
3866;DHT22;1948;53.250;10.412;2023-08-01T02:58:05;17.30;99.90
3866;DHT22;1948;53.250;10.412;2023-08-01T03:00:38;17.20;99.90
3866;DHT22;1948;53.250;10.412;2023-08-01T03:03:06;17.20;99.90
3866;DHT22;1948;53.250;10.412;2023-08-01T03:05:36;17.20;99.90
3866;DHT22;1948;53.250;10.412;2023-08-01T03:08:06;17.20;99.90
3866;DHT22;1948;53.250;10.412;2023-08-01T03:10:33;17.20;99.90
3866;DHT22;1948;53.250;10.412;2023-08-01T03:13:03;17.20;99.90
3866;DHT22;1948;53.250;10.412;2023-08-01T03:15:30;17.30;99.90
3866;DHT22;1948;53.250;10.412;2023-08-01T03:17:58;17.30;99.90
3866;DHT22;1948;53.250;10.412;2023-08-01T03:20:25;17.30;99.90
3866;DHT22;1948;53.250;10.412;2023-08-01T03:22:52;17.30;99.90
3866;DHT22;1948;53.250;10.412;2023-08-01T03:25:19;17.30;99.90
3866;DHT22;1948;53.250;10.412;2023-08-01T03:27:46;17.30;99.90
3866;DHT22;1948;53.250;10.412;2023-08-01T03:30:13;17.30;99.90
3866;DHT22;1948;53.250;10.412;2023-08-01T03:32:41;17.30;99.90
3866;DHT22;1948;53.250;10.412;2023-08-01T03:35:08;17.30;99.90
3866;DHT22;1948;53.250;10.412;2023-08-01T03:37:35;17.20;99.90
3866;DHT22;1948;53.250;10.412;2023-08-01T03:40:02;17.20;99.90
3866;DHT22;1948;53.250;10.412;2023-08-01T03:42:29;17.30;99.90
3866;DHT22;1948;53.250;10.412;2023-08-01T03:44:56;17.30;99.90
3866;DHT22;1948;53.250;10.412;2023-08-01T03:47:23;17.20;99.90
3866;DHT22;1948;53.250;10.412;2023-08-01T03:49:50;17.20;99.90
3866;DHT22;1948;53.250;10.412;2023-08-01T03:52:17;17.20;99.90
3866;DHT22;1948;53.250;10.412;2023-08-01T03:54:46;17.20;99.90
3866;DHT22;1948;53.250;10.412;2023-08-01T03:57:13;17.10;99.90
3866;DHT22;1948;53.250;10.412;2023-08-01T03:59:40;17.10;99.90
3866;DHT22;1948;53.250;10.412;2023-08-01T04:02:10;17.10;99.90
3866;DHT22;1948;53.250;10.412;2023-08-01T04:04:37;17.20;99.90
3866;DHT22;1948;53.250;10.412;2023-08-01T04:07:08;17.10;99.90
3866;DHT22;1948;53.250;10.412;2023-08-01T04:09:39;17.20;99.90
3866;DHT22;1948;53.250;10.412;2023-08-01T04:12:07;17.20;99.90
3866;DHT22;1948;53.250;10.412;2023-08-01T04:14:34;17.20;99.90
3866;DHT22;1948;53.250;10.412;2023-08-01T04:17:01;17.20;99.90
3866;DHT22;1948;53.250;10.412;2023-08-01T04:19:28;17.20;99.90
3866;DHT22;1948;53.250;10.412;2023-08-01T04:21:55;17.20;99.90
3866;DHT22;1948;53.250;10.412;2023-08-01T04:24:22;17.20;99.90
3866;DHT22;1948;53.250;10.412;2023-08-01T04:26:54;17.20;99.90
3866;DHT22;1948;53.250;10.412;2023-08-01T04:29:23;17.20;99.90
3866;DHT22;1948;53.250;10.412;2023-08-01T04:31:50;17.20;99.90
3866;DHT22;1948;53.250;10.412;2023-08-01T04:34:19;17.20;99.90
3866;DHT22;1948;53.250;10.412;2023-08-01T04:36:46;17.10;99.90
3866;DHT22;1948;53.250;10.412;2023-08-01T04:39:13;17.10;99.90
3866;DHT22;1948;53.250;10.412;2023-08-01T04:41:40;17.20;99.90
3866;DHT22;1948;53.250;10.412;2023-08-01T04:44:07;17.20;99.90
3866;DHT22;1948;53.250;10.412;2023-08-01T04:46:34;17.20;99.90
3866;DHT22;1948;53.250;10.412;2023-08-01T04:49:01;17.20;99.90
3866;DHT22;1948;53.250;10.412;2023-08-01T04:51:28;17.20;99.90
3866;DHT22;1948;53.250;10.412;2023-08-01T04:53:56;17.20;99.90
3866;DHT22;1948;53.250;10.412;2023-08-01T04:56:23;17.20;99.90
3866;DHT22;1948;53.250;10.412;2023-08-01T04:58:50;17.20;99.90
3866;DHT22;1948;53.250;10.412;2023-08-01T05:01:16;17.20;99.90
3866;DHT22;1948;53.250;10.412;2023-08-01T05:03:44;17.30;99.90
3866;DHT22;1948;53.250;10.412;2023-08-01T05:06:11;17.30;99.90
3866;DHT22;1948;53.250;10.412;2023-08-01T05:08:38;17.40;99.90
3866;DHT22;1948;53.250;10.412;2023-08-01T05:11:05;17.30;99.90
3866;DHT22;1948;53.250;10.412;2023-08-01T05:13:32;17.30;99.90
3866;DHT22;1948;53.250;10.412;2023-08-01T05:15:59;17.30;99.90
3866;DHT22;1948;53.250;10.412;2023-08-01T05:18:26;17.30;99.90
3866;DHT22;1948;53.250;10.412;2023-08-01T05:20:57;17.30;99.90
3866;DHT22;1948;53.250;10.412;2023-08-01T05:23:27;17.40;99.90
3866;DHT22;1948;53.250;10.412;2023-08-01T05:25:54;17.40;99.90
3866;DHT22;1948;53.250;10.412;2023-08-01T05:28:23;17.40;99.90
3866;DHT22;1948;53.250;10.412;2023-08-01T05:30:50;17.50;99.90
3866;DHT22;1948;53.250;10.412;2023-08-01T05:33:17;17.60;99.90
3866;DHT22;1948;53.250;10.412;2023-08-01T05:35:44;17.60;99.90
3866;DHT22;1948;53.250;10.412;2023-08-01T05:38:11;17.70;99.90
3866;DHT22;1948;53.250;10.412;2023-08-01T05:40:43;17.70;99.90
3866;DHT22;1948;53.250;10.412;2023-08-01T05:43:10;17.70;99.90
3866;DHT22;1948;53.250;10.412;2023-08-01T05:45:37;17.70;99.90
3866;DHT22;1948;53.250;10.412;2023-08-01T05:48:05;17.80;99.90
3866;DHT22;1948;53.250;10.412;2023-08-01T05:50:32;17.90;99.90
3866;DHT22;1948;53.250;10.412;2023-08-01T05:53:01;17.90;99.90
3866;DHT22;1948;53.250;10.412;2023-08-01T05:55:31;17.80;99.90
3866;DHT22;1948;53.250;10.412;2023-08-01T05:57:58;17.90;99.90
3866;DHT22;1948;53.250;10.412;2023-08-01T06:00:25;17.90;99.90
3866;DHT22;1948;53.250;10.412;2023-08-01T06:02:52;17.90;99.90
3866;DHT22;1948;53.250;10.412;2023-08-01T06:05:26;18.10;99.90
3866;DHT22;1948;53.250;10.412;2023-08-01T06:07:53;18.10;99.90
3866;DHT22;1948;53.250;10.412;2023-08-01T06:10:24;18.10;99.90
3866;DHT22;1948;53.250;10.412;2023-08-01T06:12:51;18.20;99.90
3866;DHT22;1948;53.250;10.412;2023-08-01T06:15:18;18.20;99.90
3866;DHT22;1948;53.250;10.412;2023-08-01T06:17:45;18.40;99.90
3866;DHT22;1948;53.250;10.412;2023-08-01T06:20:12;18.60;99.90
3866;DHT22;1948;53.250;10.412;2023-08-01T06:22:39;18.60;99.90
3866;DHT22;1948;53.250;10.412;2023-08-01T06:25:09;18.70;99.90
3866;DHT22;1948;53.250;10.412;2023-08-01T06:27:37;18.80;99.90
3866;DHT22;1948;53.250;10.412;2023-08-01T06:30:09;18.80;99.90
3866;DHT22;1948;53.250;10.412;2023-08-01T06:32:38;18.80;99.90
3866;DHT22;1948;53.250;10.412;2023-08-01T06:35:06;18.90;99.90
3866;DHT22;1948;53.250;10.412;2023-08-01T06:37:33;18.90;99.90
3866;DHT22;1948;53.250;10.412;2023-08-01T06:40:01;18.90;99.90
3866;DHT22;1948;53.250;10.412;2023-08-01T06:42:28;18.90;99.90
3866;DHT22;1948;53.250;10.412;2023-08-01T06:44:55;18.90;99.90
3866;DHT22;1948;53.250;10.412;2023-08-01T06:47:25;18.90;99.90
3866;DHT22;1948;53.250;10.412;2023-08-01T06:49:55;19.00;99.90
3866;DHT22;1948;53.250;10.412;2023-08-01T06:52:22;19.00;99.90
3866;DHT22;1948;53.250;10.412;2023-08-01T06:54:51;19.00;99.90
3866;DHT22;1948;53.250;10.412;2023-08-01T06:57:19;19.10;99.90
3866;DHT22;1948;53.250;10.412;2023-08-01T06:59:48;19.10;99.90
3866;DHT22;1948;53.250;10.412;2023-08-01T07:02:14;19.10;99.90
3866;DHT22;1948;53.250;10.412;2023-08-01T07:04:42;19.00;99.90
3866;DHT22;1948;53.250;10.412;2023-08-01T07:07:11;19.00;99.90
3866;DHT22;1948;53.250;10.412;2023-08-01T07:09:41;19.10;99.90
3866;DHT22;1948;53.250;10.412;2023-08-01T07:12:08;19.10;99.90
3866;DHT22;1948;53.250;10.412;2023-08-01T07:14:35;19.10;99.90
3866;DHT22;1948;53.250;10.412;2023-08-01T07:17:04;19.10;99.90
3866;DHT22;1948;53.250;10.412;2023-08-01T07:19:31;19.10;99.90
3866;DHT22;1948;53.250;10.412;2023-08-01T07:21:58;19.10;99.90
3866;DHT22;1948;53.250;10.412;2023-08-01T07:24:25;19.00;99.90
3866;DHT22;1948;53.250;10.412;2023-08-01T07:26:55;18.70;99.90
3866;DHT22;1948;53.250;10.412;2023-08-01T07:29:22;18.50;99.90
3866;DHT22;1948;53.250;10.412;2023-08-01T07:31:49;18.40;99.90
3866;DHT22;1948;53.250;10.412;2023-08-01T07:34:16;18.50;99.90
3866;DHT22;1948;53.250;10.412;2023-08-01T07:36:43;18.60;99.90
3866;DHT22;1948;53.250;10.412;2023-08-01T07:39:10;18.60;99.90
3866;DHT22;1948;53.250;10.412;2023-08-01T07:41:37;18.60;99.90
3866;DHT22;1948;53.250;10.412;2023-08-01T07:44:04;18.80;99.90
3866;DHT22;1948;53.250;10.412;2023-08-01T07:46:33;18.80;99.90
3866;DHT22;1948;53.250;10.412;2023-08-01T07:49:00;18.90;99.90
3866;DHT22;1948;53.250;10.412;2023-08-01T07:51:27;19.00;99.90
3866;DHT22;1948;53.250;10.412;2023-08-01T07:53:57;19.10;99.90
3866;DHT22;1948;53.250;10.412;2023-08-01T07:56:24;19.20;99.90
3866;DHT22;1948;53.250;10.412;2023-08-01T07:58:51;19.30;99.90
3866;DHT22;1948;53.250;10.412;2023-08-01T08:01:18;19.20;99.90
3866;DHT22;1948;53.250;10.412;2023-08-01T08:03:45;19.10;99.90
3866;DHT22;1948;53.250;10.412;2023-08-01T08:06:12;19.00;99.90
3866;DHT22;1948;53.250;10.412;2023-08-01T08:08:39;19.10;99.90
3866;DHT22;1948;53.250;10.412;2023-08-01T08:11:06;19.10;99.90
3866;DHT22;1948;53.250;10.412;2023-08-01T08:13:35;19.10;99.90
3866;DHT22;1948;53.250;10.412;2023-08-01T08:16:02;19.30;99.90
3866;DHT22;1948;53.250;10.412;2023-08-01T08:18:31;19.30;99.90
3866;DHT22;1948;53.250;10.412;2023-08-01T08:20:58;19.40;99.90
3866;DHT22;1948;53.250;10.412;2023-08-01T08:23:28;19.50;99.90
3866;DHT22;1948;53.250;10.412;2023-08-01T08:25:59;19.70;99.90
3866;DHT22;1948;53.250;10.412;2023-08-01T08:28:31;19.80;99.90
3866;DHT22;1948;53.250;10.412;2023-08-01T08:31:01;20.10;99.90
3866;DHT22;1948;53.250;10.412;2023-08-01T08:33:29;20.30;99.90
3866;DHT22;1948;53.250;10.412;2023-08-01T08:35:56;20.50;99.90
3866;DHT22;1948;53.250;10.412;2023-08-01T08:38:25;20.60;99.90
3866;DHT22;1948;53.250;10.412;2023-08-01T08:41:13;20.90;99.90
3866;DHT22;1948;53.250;10.412;2023-08-01T08:43:41;21.30;99.90
3866;DHT22;1948;53.250;10.412;2023-08-01T08:46:12;21.20;99.90
3866;DHT22;1948;53.250;10.412;2023-08-01T08:48:42;21.40;99.90
3866;DHT22;1948;53.250;10.412;2023-08-01T08:51:13;21.40;99.90
3866;DHT22;1948;53.250;10.412;2023-08-01T08:53:42;21.60;99.90
3866;DHT22;1948;53.250;10.412;2023-08-01T08:56:11;21.80;99.90
3866;DHT22;1948;53.250;10.412;2023-08-01T08:58:39;21.80;99.90
3866;DHT22;1948;53.250;10.412;2023-08-01T09:01:06;21.50;99.90
3866;DHT22;1948;53.250;10.412;2023-08-01T09:03:34;21.70;99.90
3866;DHT22;1948;53.250;10.412;2023-08-01T09:06:09;22.00;99.90
3866;DHT22;1948;53.250;10.412;2023-08-01T09:08:44;21.80;99.90
3866;DHT22;1948;53.250;10.412;2023-08-01T09:11:18;21.90;99.90
3866;DHT22;1948;53.250;10.412;2023-08-01T09:13:45;21.80;99.90
3866;DHT22;1948;53.250;10.412;2023-08-01T09:16:15;21.80;99.90
3866;DHT22;1948;53.250;10.412;2023-08-01T09:18:52;21.60;99.90
3866;DHT22;1948;53.250;10.412;2023-08-01T09:21:20;21.90;99.90
3866;DHT22;1948;53.250;10.412;2023-08-01T09:23:48;22.30;99.90
3866;DHT22;1948;53.250;10.412;2023-08-01T09:26:16;22.60;99.90
3866;DHT22;1948;53.250;10.412;2023-08-01T09:29:05;22.80;99.90
3866;DHT22;1948;53.250;10.412;2023-08-01T09:31:38;22.60;99.90
3866;DHT22;1948;53.250;10.412;2023-08-01T09:36:51;22.00;99.90
3866;DHT22;1948;53.250;10.412;2023-08-01T09:39:27;21.90;99.90
3866;DHT22;1948;53.250;10.412;2023-08-01T09:42:03;21.90;99.90
3866;DHT22;1948;53.250;10.412;2023-08-01T09:44:35;21.80;99.90
3866;DHT22;1948;53.250;10.412;2023-08-01T09:47:04;21.90;99.90
3866;DHT22;1948;53.250;10.412;2023-08-01T09:49:35;22.00;99.90
3866;DHT22;1948;53.250;10.412;2023-08-01T09:52:07;22.20;99.90
3866;DHT22;1948;53.250;10.412;2023-08-01T09:54:34;22.50;99.90
3866;DHT22;1948;53.250;10.412;2023-08-01T09:57:04;22.60;99.90
3866;DHT22;1948;53.250;10.412;2023-08-01T09:59:33;22.80;99.90
3866;DHT22;1948;53.250;10.412;2023-08-01T10:02:01;23.10;99.90
3866;DHT22;1948;53.250;10.412;2023-08-01T10:04:30;23.40;99.90
3866;DHT22;1948;53.250;10.412;2023-08-01T10:07:05;23.50;99.90
3866;DHT22;1948;53.250;10.412;2023-08-01T10:09:36;23.70;99.90
3866;DHT22;1948;53.250;10.412;2023-08-01T10:12:06;24.00;99.90
3866;DHT22;1948;53.250;10.412;2023-08-01T10:14:35;24.10;99.90
3866;DHT22;1948;53.250;10.412;2023-08-01T10:17:04;24.40;99.90
3866;DHT22;1948;53.250;10.412;2023-08-01T10:19:32;24.60;99.90
3866;DHT22;1948;53.250;10.412;2023-08-01T10:22:00;24.70;99.90
3866;DHT22;1948;53.250;10.412;2023-08-01T10:24:31;24.50;99.90
3866;DHT22;1948;53.250;10.412;2023-08-01T10:27:14;24.30;99.90
3866;DHT22;1948;53.250;10.412;2023-08-01T10:29:42;24.10;99.90
3866;DHT22;1948;53.250;10.412;2023-08-01T10:32:10;24.00;99.90
3866;DHT22;1948;53.250;10.412;2023-08-01T10:34:37;24.10;99.90
3866;DHT22;1948;53.250;10.412;2023-08-01T10:37:06;24.20;99.90
3866;DHT22;1948;53.250;10.412;2023-08-01T10:39:33;24.60;99.90
3866;DHT22;1948;53.250;10.412;2023-08-01T10:42:04;24.80;99.90
3866;DHT22;1948;53.250;10.412;2023-08-01T10:44:45;25.10;99.90
3866;DHT22;1948;53.250;10.412;2023-08-01T10:47:12;25.00;99.90
3866;DHT22;1948;53.250;10.412;2023-08-01T10:49:43;25.10;99.90
3866;DHT22;1948;53.250;10.412;2023-08-01T10:55:03;25.20;99.90
3866;DHT22;1948;53.250;10.412;2023-08-01T10:57:36;25.60;99.90
3866;DHT22;1948;53.250;10.412;2023-08-01T11:00:05;25.70;99.90
3866;DHT22;1948;53.250;10.412;2023-08-01T11:02:39;25.70;99.90
3866;DHT22;1948;53.250;10.412;2023-08-01T11:05:07;25.80;99.90
3866;DHT22;1948;53.250;10.412;2023-08-01T11:07:35;26.10;99.90
3866;DHT22;1948;53.250;10.412;2023-08-01T11:10:13;26.30;99.90
3866;DHT22;1948;53.250;10.412;2023-08-01T11:12:42;26.20;99.90
3866;DHT22;1948;53.250;10.412;2023-08-01T11:15:12;26.00;99.90
3866;DHT22;1948;53.250;10.412;2023-08-01T11:17:52;26.10;99.90
3866;DHT22;1948;53.250;10.412;2023-08-01T11:20:22;26.30;99.90
3866;DHT22;1948;53.250;10.412;2023-08-01T11:22:59;26.70;99.90
3866;DHT22;1948;53.250;10.412;2023-08-01T11:25:35;26.70;99.90
3866;DHT22;1948;53.250;10.412;2023-08-01T11:28:14;26.50;99.90
3866;DHT22;1948;53.250;10.412;2023-08-01T11:30:44;26.70;99.90
3866;DHT22;1948;53.250;10.412;2023-08-01T11:33:30;26.60;99.90
3866;DHT22;1948;53.250;10.412;2023-08-01T11:35:57;26.60;99.90
3866;DHT22;1948;53.250;10.412;2023-08-01T11:38:27;26.20;99.90
3866;DHT22;1948;53.250;10.412;2023-08-01T11:41:04;25.70;99.90
3866;DHT22;1948;53.250;10.412;2023-08-01T11:43:41;26.00;99.90
3866;DHT22;1948;53.250;10.412;2023-08-01T11:46:09;26.40;99.90
3866;DHT22;1948;53.250;10.412;2023-08-01T11:48:39;26.40;99.90
3866;DHT22;1948;53.250;10.412;2023-08-01T11:51:12;26.20;99.90
3866;DHT22;1948;53.250;10.412;2023-08-01T11:53:41;25.70;99.90
3866;DHT22;1948;53.250;10.412;2023-08-01T11:56:08;25.30;99.90
3866;DHT22;1948;53.250;10.412;2023-08-01T11:58:48;24.80;99.90
3866;DHT22;1948;53.250;10.412;2023-08-01T12:01:15;23.50;99.90
3866;DHT22;1948;53.250;10.412;2023-08-01T12:06:17;21.50;99.90
3866;DHT22;1948;53.250;10.412;2023-08-01T12:08:53;20.90;99.90
3866;DHT22;1948;53.250;10.412;2023-08-01T12:14:03;20.30;99.90
3866;DHT22;1948;53.250;10.412;2023-08-01T12:16:31;20.20;99.90
3866;DHT22;1948;53.250;10.412;2023-08-01T12:18:58;20.40;99.90
3866;DHT22;1948;53.250;10.412;2023-08-01T12:21:31;21.00;99.90
3866;DHT22;1948;53.250;10.412;2023-08-01T12:23:59;21.30;99.90
3866;DHT22;1948;53.250;10.412;2023-08-01T12:26:26;21.70;99.90
3866;DHT22;1948;53.250;10.412;2023-08-01T12:28:55;22.20;99.90
3866;DHT22;1948;53.250;10.412;2023-08-01T12:31:23;22.70;99.90
3866;DHT22;1948;53.250;10.412;2023-08-01T12:33:51;23.20;99.90
3866;DHT22;1948;53.250;10.412;2023-08-01T12:36:20;23.50;99.90
3866;DHT22;1948;53.250;10.412;2023-08-01T12:38:47;23.40;99.90
3866;DHT22;1948;53.250;10.412;2023-08-01T12:41:14;23.40;99.90
3866;DHT22;1948;53.250;10.412;2023-08-01T12:43:41;23.50;99.90
3866;DHT22;1948;53.250;10.412;2023-08-01T12:46:08;23.30;99.90
3866;DHT22;1948;53.250;10.412;2023-08-01T12:48:38;23.10;99.90
3866;DHT22;1948;53.250;10.412;2023-08-01T12:51:05;22.90;99.90
3866;DHT22;1948;53.250;10.412;2023-08-01T12:53:32;22.20;99.90
3866;DHT22;1948;53.250;10.412;2023-08-01T12:55:59;21.90;99.90
3866;DHT22;1948;53.250;10.412;2023-08-01T12:58:26;21.80;99.90
3866;DHT22;1948;53.250;10.412;2023-08-01T13:00:53;21.90;99.90
3866;DHT22;1948;53.250;10.412;2023-08-01T13:03:23;22.20;99.90
3866;DHT22;1948;53.250;10.412;2023-08-01T13:05:50;22.60;99.90
3866;DHT22;1948;53.250;10.412;2023-08-01T13:08:19;22.80;99.90
3866;DHT22;1948;53.250;10.412;2023-08-01T13:10:51;23.00;99.90
3866;DHT22;1948;53.250;10.412;2023-08-01T13:13:21;23.20;99.90
3866;DHT22;1948;53.250;10.412;2023-08-01T13:15:51;23.20;99.90
3866;DHT22;1948;53.250;10.412;2023-08-01T13:18:24;23.00;99.90
3866;DHT22;1948;53.250;10.412;2023-08-01T13:20:51;22.60;99.90
3866;DHT22;1948;53.250;10.412;2023-08-01T13:23:18;22.50;99.90
3866;DHT22;1948;53.250;10.412;2023-08-01T13:25:48;22.40;99.90
3866;DHT22;1948;53.250;10.412;2023-08-01T13:28:18;22.40;99.90
3866;DHT22;1948;53.250;10.412;2023-08-01T13:30:45;22.50;99.90
3866;DHT22;1948;53.250;10.412;2023-08-01T13:33:12;22.70;99.90
3866;DHT22;1948;53.250;10.412;2023-08-01T13:35:39;22.70;99.90
3866;DHT22;1948;53.250;10.412;2023-08-01T13:38:06;22.90;99.90
3866;DHT22;1948;53.250;10.412;2023-08-01T13:40:33;23.00;99.90
3866;DHT22;1948;53.250;10.412;2023-08-01T13:43:02;23.10;99.90
3866;DHT22;1948;53.250;10.412;2023-08-01T13:45:32;23.10;99.90
3866;DHT22;1948;53.250;10.412;2023-08-01T13:47:59;22.80;99.90
3866;DHT22;1948;53.250;10.412;2023-08-01T13:50:29;22.60;99.90
3866;DHT22;1948;53.250;10.412;2023-08-01T13:52:59;22.40;99.90
3866;DHT22;1948;53.250;10.412;2023-08-01T13:55:26;22.30;99.90
3866;DHT22;1948;53.250;10.412;2023-08-01T13:57:53;22.40;99.90
3866;DHT22;1948;53.250;10.412;2023-08-01T14:00:20;22.80;99.90
3866;DHT22;1948;53.250;10.412;2023-08-01T14:02:49;23.00;99.90
3866;DHT22;1948;53.250;10.412;2023-08-01T14:05:18;22.80;99.90
3866;DHT22;1948;53.250;10.412;2023-08-01T14:07:45;22.70;99.90
3866;DHT22;1948;53.250;10.412;2023-08-01T14:10:12;22.40;99.90
3866;DHT22;1948;53.250;10.412;2023-08-01T14:12:41;22.10;99.90
3866;DHT22;1948;53.250;10.412;2023-08-01T14:15:09;21.80;99.90
3866;DHT22;1948;53.250;10.412;2023-08-01T14:17:38;21.60;99.90
3866;DHT22;1948;53.250;10.412;2023-08-01T14:20:06;21.10;99.90
3866;DHT22;1948;53.250;10.412;2023-08-01T14:22:34;20.90;99.90
3866;DHT22;1948;53.250;10.412;2023-08-01T14:25:01;20.80;99.90
3866;DHT22;1948;53.250;10.412;2023-08-01T14:27:30;20.70;99.90
3866;DHT22;1948;53.250;10.412;2023-08-01T14:30:01;20.60;99.90
3866;DHT22;1948;53.250;10.412;2023-08-01T14:32:31;20.60;99.90
3866;DHT22;1948;53.250;10.412;2023-08-01T14:35:00;20.60;99.90
3866;DHT22;1948;53.250;10.412;2023-08-01T14:37:27;20.70;99.90
3866;DHT22;1948;53.250;10.412;2023-08-01T14:39:56;20.80;99.90
3866;DHT22;1948;53.250;10.412;2023-08-01T14:42:23;20.90;99.90
3866;DHT22;1948;53.250;10.412;2023-08-01T14:44:53;21.00;99.90
3866;DHT22;1948;53.250;10.412;2023-08-01T14:47:21;20.90;99.90
3866;DHT22;1948;53.250;10.412;2023-08-01T14:49:48;20.80;99.90
3866;DHT22;1948;53.250;10.412;2023-08-01T14:52:16;20.80;99.90
3866;DHT22;1948;53.250;10.412;2023-08-01T14:54:43;20.80;99.90
3866;DHT22;1948;53.250;10.412;2023-08-01T14:57:10;20.70;99.90
3866;DHT22;1948;53.250;10.412;2023-08-01T14:59:37;20.70;99.90
3866;DHT22;1948;53.250;10.412;2023-08-01T15:02:05;20.40;99.90
3866;DHT22;1948;53.250;10.412;2023-08-01T15:04:36;20.10;99.90
3866;DHT22;1948;53.250;10.412;2023-08-01T15:07:03;19.60;99.90
3866;DHT22;1948;53.250;10.412;2023-08-01T15:09:31;19.40;99.90
3866;DHT22;1948;53.250;10.412;2023-08-01T15:11:58;19.20;99.90
3866;DHT22;1948;53.250;10.412;2023-08-01T15:14:27;19.10;99.90
3866;DHT22;1948;53.250;10.412;2023-08-01T15:16:54;19.00;99.90
3866;DHT22;1948;53.250;10.412;2023-08-01T15:19:22;18.90;99.90
3866;DHT22;1948;53.250;10.412;2023-08-01T15:21:51;18.80;99.90
3866;DHT22;1948;53.250;10.412;2023-08-01T15:24:18;19.00;99.90
3866;DHT22;1948;53.250;10.412;2023-08-01T15:26:45;19.20;99.90
3866;DHT22;1948;53.250;10.412;2023-08-01T15:29:13;19.50;99.90
3866;DHT22;1948;53.250;10.412;2023-08-01T15:31:42;19.70;99.90
3866;DHT22;1948;53.250;10.412;2023-08-01T15:34:10;20.00;99.90
3866;DHT22;1948;53.250;10.412;2023-08-01T15:36:37;20.30;99.90
3866;DHT22;1948;53.250;10.412;2023-08-01T15:39:08;20.50;99.90
3866;DHT22;1948;53.250;10.412;2023-08-01T15:41:35;20.70;99.90
3866;DHT22;1948;53.250;10.412;2023-08-01T15:44:02;20.70;99.90
3866;DHT22;1948;53.250;10.412;2023-08-01T15:46:29;20.60;99.90
3866;DHT22;1948;53.250;10.412;2023-08-01T15:48:56;20.40;99.90
3866;DHT22;1948;53.250;10.412;2023-08-01T15:51:26;20.30;99.90
3866;DHT22;1948;53.250;10.412;2023-08-01T15:53:53;20.30;99.90
3866;DHT22;1948;53.250;10.412;2023-08-01T15:56:20;20.30;99.90
3866;DHT22;1948;53.250;10.412;2023-08-01T15:58:47;20.40;99.90
3866;DHT22;1948;53.250;10.412;2023-08-01T16:01:16;20.40;99.90
3866;DHT22;1948;53.250;10.412;2023-08-01T16:03:44;20.50;99.90